Time;durP1;ratioP1;P1;durP2;ratioP2;P2;SDS_P1;SDS_P2;PMS_P1;PMS_P2;Temp;Humidity;BMP_temperature;BMP_pressure;BME280_temperature;BME280_humidity;BME280_pressure;Samples;Min_cycle;Max_cycle;Signal;HPM_P1;HPM_P2
2023/01/25 00:00:49;;;;;;;27.00;12.60;;;;;;;-0.06;66.91;101018.39;78090;1301;3049384;-60
2023/01/25 00:03:16;;;;;;;24.40;12.00;;;;;;;-0.11;66.66;101012.67;79237;1299;3013440;-61
2023/01/25 00:05:43;;;;;;;22.10;11.50;;;;;;;-0.06;66.76;101018.05;79274;1298;3011934;-61
2023/01/25 00:08:11;;;;;;;31.40;11.30;;;;;;;-0.06;66.95;101014.25;78025;1300;3051647;-60
2023/01/25 00:10:37;;;;;;;22.00;12.20;;;;;;;-0.05;67.17;101008.76;79325;1301;3012719;-60
2023/01/25 00:13:04;;;;;;;27.90;13.40;;;;;;;-0.07;66.81;101006.15;79230;1299;3011604;-60
2023/01/25 00:15:32;;;;;;;28.50;11.80;;;;;;;-0.07;66.68;101013.04;77976;1301;3026085;-60
2023/01/25 00:18:00;;;;;;;24.60;12.40;;;;;;;-0.08;67.17;101009.23;79247;1298;3013337;-61
2023/01/25 00:20:26;;;;;;;30.40;12.20;;;;;;;-0.04;67.36;101011.16;79284;1301;3011587;-61
2023/01/25 00:22:54;;;;;;;20.20;11.30;;;;;;;-0.05;67.10;101009.95;78075;1300;3051198;-61
2023/01/25 00:25:20;;;;;;;24.00;13.00;;;;;;;-0.11;67.14;101007.67;79308;1298;3013292;-61
2023/01/25 00:27:47;;;;;;;24.00;12.20;;;;;;;-0.14;67.35;101001.10;79317;1300;3011540;-61
2023/01/25 00:30:17;;;;;;;22.60;12.20;;;;;;;-0.06;67.64;101003.06;78126;1300;3049100;-61
2023/01/25 00:32:53;;;;;;;23.60;12.20;;;;;;;-0.06;67.25;101002.19;79450;1295;3013779;-61
2023/01/25 00:35:21;;;;;;;24.00;11.90;;;;;;;-0.06;67.21;100999.62;78203;1301;3049898;-61
2023/01/25 00:37:48;;;;;;;23.20;11.40;;;;;;;0.02;67.34;101001.90;79432;1301;3013480;-61
2023/01/25 00:40:15;;;;;;;21.80;11.60;;;;;;;0.06;67.32;101005.90;79257;1295;3013906;-60
2023/01/25 00:42:43;;;;;;;21.30;11.80;;;;;;;0.08;67.10;101007.13;78016;1300;3052738;-61
2023/01/25 00:45:11;;;;;;;20.60;11.60;;;;;;;0.05;67.26;101004.34;79317;1295;3015375;-61
2023/01/25 00:47:38;;;;;;;22.00;11.60;;;;;;;0.11;67.19;101001.98;79331;1295;3013106;-61
2023/01/25 00:50:06;;;;;;;23.20;11.30;;;;;;;0.09;66.85;100999.72;78224;1300;3050313;-60
2023/01/25 00:52:33;;;;;;;21.60;11.10;;;;;;;0.11;66.94;100999.21;79323;1301;3013174;-60
2023/01/25 00:55:01;;;;;;;23.50;11.00;;;;;;;0.04;66.95;100999.69;79263;1298;3011643;-60
2023/01/25 00:57:29;;;;;;;20.70;11.00;;;;;;;0.10;67.20;100997.48;77986;1296;3052126;-61
2023/01/25 00:59:55;;;;;;;24.90;10.90;;;;;;;0.11;67.04;100996.12;79238;1300;3012977;-61
2023/01/25 01:02:22;;;;;;;26.10;12.40;;;;;;;0.14;66.79;100995.77;79224;1299;3013369;-62
2023/01/25 01:04:55;;;;;;;23.20;12.00;;;;;;;0.10;66.84;100990.77;77999;1298;3049770;-60
2023/01/25 01:07:22;;;;;;;19.90;10.70;;;;;;;0.05;66.93;100989.70;79296;1296;3012900;-61
2023/01/25 01:09:48;;;;;;;23.10;11.10;;;;;;;0.08;66.74;100990.23;79255;1295;3011741;-61
2023/01/25 01:12:17;;;;;;;26.20;12.60;;;;;;;0.09;67.40;100988.87;78090;1299;3051426;-60
2023/01/25 01:14:44;;;;;;;26.30;11.50;;;;;;;0.08;67.13;100985.74;79257;1300;3013645;-61
2023/01/25 01:17:10;;;;;;;24.60;12.80;;;;;;;0.15;67.43;100984.59;79218;1299;3013361;-60
2023/01/25 01:19:38;;;;;;;24.40;12.70;;;;;;;0.16;66.96;100979.44;78012;1300;3026334;-60
2023/01/25 01:22:05;;;;;;;27.80;13.80;;;;;;;0.09;66.96;100981.97;79241;1298;3013018;-60
2023/01/25 01:24:32;;;;;;;28.50;14.50;;;;;;;0.07;67.51;100975.94;79201;1300;3013272;-61
2023/01/25 01:26:59;;;;;;;32.50;14.40;;;;;;;0.11;67.15;100976.81;78026;1297;3026648;-60
2023/01/25 01:29:26;;;;;;;31.80;14.80;;;;;;;0.12;67.06;100975.44;79223;1300;3013600;-61
2023/01/25 01:31:53;;;;;;;31.40;16.00;;;;;;;0.08;67.40;100974.20;79254;1301;3012759;-60
2023/01/25 01:34:24;;;;;;;32.60;16.50;;;;;;;0.07;67.56;100974.04;78094;1300;3049539;-61
2023/01/25 01:36:51;;;;;;;32.80;15.90;;;;;;;0.06;67.28;100965.23;79334;1300;3013289;-61
2023/01/25 01:39:18;;;;;;;30.40;15.40;;;;;;;0.04;67.54;100960.92;79230;1301;3013162;-61
2023/01/25 01:41:46;;;;;;;27.00;15.60;;;;;;;-0.04;67.68;100957.08;78036;1297;3052133;-61
2023/01/25 01:44:17;;;;;;;37.70;15.00;;;;;;;0.05;67.61;100957.48;79327;1301;3018784;-61
2023/01/25 01:46:53;;;;;;;31.90;15.00;;;;;;;0.09;67.44;100953.89;78013;1300;3053965;-60
2023/01/25 01:49:24;;;;;;;32.10;14.60;;;;;;;0.09;67.52;100952.33;79304;1299;3011375;-61
2023/01/25 01:52:06;;;;;;;26.60;13.60;;;;;;;0.14;67.28;100949.45;78032;1301;3053001;-60
2023/01/25 01:54:39;;;;;;;28.80;14.40;;;;;;;0.12;67.17;100948.73;78040;1301;3052133;-60
2023/01/25 01:57:13;;;;;;;29.40;14.30;;;;;;;0.15;66.84;100943.23;79224;1300;3013405;-59
2023/01/25 01:59:59;;;;;;;29.80;14.60;;;;;;;0.13;67.20;100944.77;77976;1301;3051666;-61
2023/01/25 02:02:28;;;;;;;25.60;12.90;;;;;;;0.09;67.07;100945.09;78021;1297;3055511;-58
2023/01/25 02:04:57;;;;;;;31.80;13.50;;;;;;;0.11;67.25;100944.24;79245;1295;3013473;-60
2023/01/25 02:07:31;;;;;;;25.50;13.90;;;;;;;0.10;67.30;100939.41;78774;1300;3011790;-61
2023/01/25 02:09:59;;;;;;;28.60;13.40;;;;;;;0.13;67.27;100942.20;77881;1295;4869643;-61
2023/01/25 02:12:27;;;;;;;28.10;13.70;;;;;;;0.21;67.30;100939.48;78112;1301;3052613;-60
2023/01/25 02:14:54;;;;;;;27.60;13.50;;;;;;;0.24;66.78;100940.36;79294;1300;3012772;-61
2023/01/25 02:17:26;;;;;;;28.60;13.20;;;;;;;0.26;66.66;100938.48;79195;1299;3012011;-59
2023/01/25 02:20:19;;;;;;;29.30;14.10;;;;;;;0.27;66.52;100934.34;78019;1295;3056104;-62
2023/01/25 02:22:51;;;;;;;26.20;13.60;;;;;;;0.27;66.64;100935.20;78111;1295;3050112;-61
2023/01/25 02:25:17;;;;;;;32.40;13.20;;;;;;;0.27;66.83;100936.75;79209;1300;3011863;-61
2023/01/25 02:27:57;;;;;;;26.10;13.70;;;;;;;0.30;66.55;100936.26;77991;1299;3028152;-59
2023/01/25 02:30:27;;;;;;;28.10;14.40;;;;;;;0.34;66.57;100934.90;78037;1300;3052570;-59
2023/01/25 02:32:54;;;;;;;26.10;13.00;;;;;;;0.28;66.55;100930.39;79291;1300;3013283;-61
2023/01/25 02:35:22;;;;;;;28.20;13.40;;;;;;;0.36;66.67;100930.93;79199;1296;3013647;-60
2023/01/25 02:37:50;;;;;;;31.80;13.20;;;;;;;0.34;66.23;100932.99;78027;1300;3056769;-61
2023/01/25 02:40:17;;;;;;;30.70;13.00;;;;;;;0.33;66.58;100933.69;79208;1295;3013492;-61
2023/01/25 02:42:49;;;;;;;23.50;12.10;;;;;;;0.34;66.49;100933.50;78049;1296;3049971;-61
2023/01/25 02:45:16;;;;;;;27.20;13.70;;;;;;;0.40;66.48;100936.13;79267;1300;3014237;-60
2023/01/25 02:47:43;;;;;;;27.50;14.00;;;;;;;0.30;66.82;100936.95;79269;1300;3013032;-61
2023/01/25 02:50:11;;;;;;;26.60;12.60;;;;;;;0.36;66.91;100934.04;77984;1296;3051494;-61
2023/01/25 02:52:38;;;;;;;27.70;13.30;;;;;;;0.30;66.75;100934.70;79229;1298;3013688;-61
2023/01/25 02:55:06;;;;;;;29.30;14.30;;;;;;;0.17;66.80;100935.50;79221;1295;3011769;-62
2023/01/25 02:57:34;;;;;;;31.60;15.00;;;;;;;0.21;67.18;100934.30;77973;1300;3050330;-61
2023/01/25 03:00:01;;;;;;;27.30;13.20;;;;;;;0.21;66.96;100932.06;79238;1302;3013078;-61
2023/01/25 03:02:28;;;;;;;29.40;13.50;;;;;;;0.17;67.14;100933.24;79249;1300;3013555;-61
2023/01/25 03:04:56;;;;;;;26.90;14.20;;;;;;;0.17;67.14;100930.32;78005;1301;3051584;-60
2023/01/25 03:07:23;;;;;;;30.10;13.90;;;;;;;0.14;67.29;100926.69;79233;1295;3013046;-58
2023/01/25 03:09:49;;;;;;;25.40;13.30;;;;;;;0.12;67.60;100930.13;79203;1296;3012780;-61
2023/01/25 03:12:17;;;;;;;28.80;13.20;;;;;;;0.16;67.06;100929.12;77978;1300;3028080;-61
2023/01/25 03:14:45;;;;;;;23.60;12.30;;;;;;;0.13;66.97;100930.14;79207;1300;3012948;-61
2023/01/25 03:17:11;;;;;;;28.40;13.60;;;;;;;0.10;67.42;100931.48;79216;1301;3012245;-61
2023/01/25 03:19:39;;;;;;;27.50;13.20;;;;;;;0.17;67.12;100930.33;78060;1299;3051435;-61
2023/01/25 03:22:08;;;;;;;26.10;12.20;;;;;;;0.16;67.37;100929.46;79331;1296;3012686;-60
2023/01/25 03:24:35;;;;;;;24.10;12.10;;;;;;;0.14;67.37;100923.41;79242;1295;3011577;-61
2023/01/25 03:27:10;;;;;;;30.80;13.40;;;;;;;0.05;67.69;100934.23;78051;1301;3050698;-60
2023/01/25 03:31:39;;;;;;;28.90;14.60;;;;;;;-0.20;68.79;100936.13;80027;1299;3014024;-61
2023/01/25 03:34:06;;;;;;;28.70;14.50;;;;;;;-0.17;68.62;100939.25;78926;1301;3013366;-60
2023/01/25 03:36:35;;;;;;;24.20;13.80;;;;;;;-0.19;68.64;100935.80;78934;1301;3011605;-60
2023/01/25 03:39:04;;;;;;;26.70;14.50;;;;;;;-0.30;69.22;100934.16;78005;1302;3052141;-60
2023/01/25 03:41:35;;;;;;;31.90;15.40;;;;;;;-0.20;69.02;100933.72;79102;1300;3013435;-59
2023/01/25 03:44:03;;;;;;;31.00;16.50;;;;;;;-0.27;69.18;100929.02;76456;1298;3026391;-60
2023/01/25 03:46:30;;;;;;;30.00;14.50;;;;;;;-0.32;69.12;100928.28;79348;1295;3013067;-59
2023/01/25 03:48:56;;;;;;;32.20;15.20;;;;;;;-0.37;69.15;100929.97;79227;1300;3013142;-63
2023/01/25 03:51:25;;;;;;;26.20;12.00;;;;;;;-0.34;69.14;100929.48;78105;1294;3028071;-60
2023/01/25 03:53:52;;;;;;;25.60;12.20;;;;;;;-0.42;69.23;100926.84;79347;1302;3013321;-60
2023/01/25 03:56:19;;;;;;;23.70;12.80;;;;;;;-0.50;69.78;100930.89;79248;1301;3013586;-61
2023/01/25 03:58:56;;;;;;;25.10;11.30;;;;;;;-0.37;69.84;100931.34;78099;1295;3051135;-60
2023/01/25 04:01:22;;;;;;;24.20;11.40;;;;;;;-0.31;69.36;100931.73;79369;1295;3013802;-62
2023/01/25 04:03:49;;;;;;;22.60;11.40;;;;;;;-0.34;69.74;100934.30;79330;1300;3011622;-60
2023/01/25 04:06:18;;;;;;;18.80;10.60;;;;;;;-0.26;69.44;100935.40;78038;1298;3049771;-61
2023/01/25 04:08:45;;;;;;;25.60;12.10;;;;;;;-0.30;69.40;100930.89;79283;1301;3014810;-61
2023/01/25 04:11:12;;;;;;;25.10;12.30;;;;;;;-0.46;69.82;100930.94;79202;1300;3011684;-61
2023/01/25 04:13:41;;;;;;;29.40;12.10;;;;;;;-0.41;69.54;100931.83;78119;1300;3051284;-61
2023/01/25 04:16:12;;;;;;;25.00;12.30;;;;;;;-0.49;69.79;100931.95;79253;1294;3013135;-60
2023/01/25 04:19:17;;;;;;;24.30;12.00;;;;;;;-0.52;70.00;100930.02;78011;1300;3049279;-60
2023/01/25 04:21:43;;;;;;;23.50;12.80;;;;;;;-0.50;70.02;100930.23;79200;1301;3013072;-61
2023/01/25 04:24:11;;;;;;;24.60;12.50;;;;;;;-0.52;70.24;100928.31;79322;1294;3011670;-60
2023/01/25 04:26:40;;;;;;;25.80;12.60;;;;;;;-0.56;70.58;100928.27;78095;1300;3053377;-61
2023/01/25 04:29:07;;;;;;;20.70;12.40;;;;;;;-0.55;70.43;100930.36;79222;1301;3013426;-61
2023/01/25 04:31:35;;;;;;;25.50;11.30;;;;;;;-0.67;70.82;100932.47;79236;1294;3011619;-61
2023/01/25 04:34:04;;;;;;;21.20;11.10;;;;;;;-0.70;71.12;100932.11;77979;1300;3048862;-61
2023/01/25 04:36:31;;;;;;;25.10;12.50;;;;;;;-0.84;71.37;100934.22;79254;1300;3013200;-59
2023/01/25 04:38:58;;;;;;;24.60;10.90;;;;;;;-0.87;71.86;100933.33;79211;1300;3011679;-59
2023/01/25 04:41:28;;;;;;;26.80;12.30;;;;;;;-0.78;71.57;100924.81;78054;1299;3028371;-61
2023/01/25 04:43:54;;;;;;;32.60;11.60;;;;;;;-0.88;71.70;100922.48;79232;1295;3012998;-61
2023/01/25 04:46:21;;;;;;;28.60;11.80;;;;;;;-1.24;72.54;100927.10;79258;1295;3011795;-61
2023/01/25 04:48:51;;;;;;;29.40;12.20;;;;;;;-1.52;73.98;100920.94;78005;1299;3048566;-61
2023/01/25 04:51:18;;;;;;;25.50;12.60;;;;;;;-1.53;74.44;100918.52;79289;1295;3013718;-61
2023/01/25 04:53:44;;;;;;;24.00;12.60;;;;;;;-1.49;74.50;100918.23;79248;1295;3013678;-60
2023/01/25 04:56:13;;;;;;;33.30;12.70;;;;;;;-1.60;74.69;100919.80;78027;1299;3052546;-62
2023/01/25 04:58:49;;;;;;;29.20;12.30;;;;;;;-1.67;75.11;100916.45;78003;1300;3068039;-61
2023/01/25 05:01:15;;;;;;;33.90;13.40;;;;;;;-1.70;75.12;100914.35;79285;1295;3012946;-60
2023/01/25 05:03:42;;;;;;;34.50;13.60;;;;;;;-1.73;75.37;100920.33;79262;1295;3011853;-61
2023/01/25 05:06:17;;;;;;;28.70;11.90;;;;;;;-1.77;75.58;100919.24;78040;1299;3054048;-60
2023/01/25 05:08:44;;;;;;;23.60;11.20;;;;;;;-1.76;75.65;100919.44;79204;1300;3013369;-61
2023/01/25 05:11:12;;;;;;;32.50;11.80;;;;;;;-1.75;75.79;100922.71;79228;1299;3011764;-61
2023/01/25 05:13:50;;;;;;;29.70;11.80;;;;;;;-1.70;75.71;100922.95;77951;1298;3069686;-60
2023/01/25 05:16:26;;;;;;;23.40;11.30;;;;;;;-1.60;75.57;100928.05;78015;1296;3050086;-60
2023/01/25 05:18:55;;;;;;;26.70;11.60;;;;;;;-1.46;75.40;100927.38;79231;1299;3013354;-60
2023/01/25 05:24:16;;;;;;;21.30;11.60;;;;;;;-1.17;74.75;100936.29;77900;1299;3049996;-61
2023/01/25 05:29:38;;;;;;;23.40;11.50;;;;;;;-0.92;74.20;100945.48;77877;1300;3069383;-61
2023/01/25 05:32:07;;;;;;;22.00;10.40;;;;;;;-0.87;73.49;100950.02;79224;1297;3013846;-61
2023/01/25 05:34:36;;;;;;;22.50;11.70;;;;;;;-0.78;73.44;100948.03;78016;1299;3056540;-61
2023/01/25 05:37:03;;;;;;;21.90;11.70;;;;;;;-0.72;72.84;100953.08;79396;1298;3018538;-61
2023/01/25 05:39:31;;;;;;;24.40;12.20;;;;;;;-0.74;73.03;100953.59;79223;1296;3011944;-61
2023/01/25 05:41:59;;;;;;;23.50;11.00;;;;;;;-0.80;72.75;100953.70;78097;1298;3053390;-61
2023/01/25 05:44:25;;;;;;;22.30;10.30;;;;;;;-0.77;72.75;100954.59;79203;1296;3013066;-61
2023/01/25 05:46:53;;;;;;;19.10;9.30;;;;;;;-0.77;72.49;100956.65;79142;1296;3013221;-61
2023/01/25 05:49:21;;;;;;;19.60;9.70;;;;;;;-0.80;72.56;100955.42;77942;1301;3055535;-62
2023/01/25 05:51:47;;;;;;;16.70;9.30;;;;;;;-0.79;72.74;100956.63;79223;1296;3013028;-60
2023/01/25 05:54:15;;;;;;;16.10;9.70;;;;;;;-0.82;72.73;100955.22;79137;1295;3011649;-60
2023/01/25 05:56:50;;;;;;;20.00;9.40;;;;;;;-0.80;72.66;100956.98;78042;1301;3052430;-63
2023/01/25 05:59:17;;;;;;;17.50;9.60;;;;;;;-0.80;72.73;100953.69;79223;1300;3013700;-61
2023/01/25 06:01:46;;;;;;;23.10;8.90;;;;;;;-0.77;72.89;100955.44;77898;1300;3028141;-61
2023/01/25 06:04:14;;;;;;;19.60;9.80;;;;;;;-0.75;72.75;100955.48;79209;1297;3013712;-60
2023/01/25 06:06:40;;;;;;;13.50;8.20;;;;;;;-0.75;72.49;100956.16;79310;1295;3011366;-61
2023/01/25 06:09:12;;;;;;;18.30;9.00;;;;;;;-0.73;72.57;100959.09;78036;1301;3051858;-61
2023/01/25 06:11:43;;;;;;;18.10;9.10;;;;;;;-0.74;72.50;100961.32;79102;1301;3011508;-61
2023/01/25 06:14:11;;;;;;;24.90;8.80;;;;;;;-0.69;72.66;100961.55;77916;1301;3052676;-61
2023/01/25 06:16:38;;;;;;;22.80;9.70;;;;;;;-0.63;72.34;100956.63;79157;1300;3013322;-61
2023/01/25 06:19:27;;;;;;;21.30;9.70;;;;;;;-0.62;72.50;100951.80;77763;1300;3051321;-61
2023/01/25 06:22:15;;;;;;;21.10;9.50;;;;;;;-0.56;72.22;100952.02;77690;1300;3056681;-61
2023/01/25 06:24:41;;;;;;;18.60;9.70;;;;;;;-0.50;72.45;100950.70;79151;1298;3013253;-61
2023/01/25 06:27:08;;;;;;;21.20;10.00;;;;;;;-0.43;71.95;100956.27;79132;1298;3011653;-61
2023/01/25 06:29:36;;;;;;;23.10;10.30;;;;;;;-0.38;71.81;100959.59;78258;1296;3026469;-62
2023/01/25 06:32:03;;;;;;;27.90;11.00;;;;;;;-0.39;72.03;100958.20;79238;1296;3013393;-61
2023/01/25 06:34:30;;;;;;;23.30;10.70;;;;;;;-0.34;71.66;100960.64;79141;1299;3012770;-61
2023/01/25 06:36:59;;;;;;;20.00;10.70;;;;;;;-0.31;71.29;100966.36;78054;1300;3056525;-61
2023/01/25 06:39:25;;;;;;;20.10;10.00;;;;;;;-0.27;71.44;100965.19;79173;1296;3018989;-63
2023/01/25 06:41:52;;;;;;;21.20;11.10;;;;;;;-0.31;71.25;100960.33;79239;1298;3013273;-63
2023/01/25 06:44:20;;;;;;;20.50;10.40;;;;;;;-0.22;71.22;100954.20;78016;1300;3027384;-62
2023/01/25 06:46:46;;;;;;;22.60;11.10;;;;;;;-0.20;71.10;100952.66;79351;1300;3018492;-63
2023/01/25 06:49:13;;;;;;;24.80;11.40;;;;;;;-0.16;71.41;100950.27;79226;1300;3011733;-63
2023/01/25 06:51:41;;;;;;;21.60;10.70;;;;;;;-0.05;71.08;100955.35;77912;1297;3031142;-62
2023/01/25 06:54:07;;;;;;;24.20;11.10;;;;;;;-0.06;70.98;100950.86;79229;1297;3013078;-62
2023/01/25 06:56:34;;;;;;;23.90;11.20;;;;;;;-0.01;70.95;100951.07;79216;1299;3011648;-63
2023/01/25 06:59:02;;;;;;;29.80;12.30;;;;;;;0.03;70.92;100949.89;78061;1300;3026382;-62
2023/01/25 07:01:29;;;;;;;30.20;12.40;;;;;;;0.02;70.60;100949.88;79189;1300;3021250;-62
2023/01/25 07:03:57;;;;;;;26.20;13.20;;;;;;;0.13;70.27;100940.99;79199;1295;3011543;-61
2023/01/25 07:06:26;;;;;;;30.50;14.60;;;;;;;-0.03;70.59;100940.55;77891;1300;3056770;-61
2023/01/25 07:08:52;;;;;;;27.30;13.50;;;;;;;-0.04;70.83;100933.66;79239;1297;3013944;-61
2023/01/25 07:11:19;;;;;;;31.80;14.90;;;;;;;-0.21;70.95;100932.16;79225;1296;3011609;-61
2023/01/25 07:13:47;;;;;;;27.50;13.50;;;;;;;-0.38;71.45;100930.48;78062;1300;3052747;-62
2023/01/25 07:16:16;;;;;;;30.50;14.10;;;;;;;-0.53;72.56;100927.09;79481;1297;3013199;-62
2023/01/25 07:18:43;;;;;;;28.60;13.10;;;;;;;-0.48;72.42;100930.41;79334;1297;3011724;-62
2023/01/25 07:21:13;;;;;;;24.10;13.60;;;;;;;-0.31;71.64;100924.34;77982;1299;3057365;-62
2023/01/25 07:23:40;;;;;;;25.20;13.00;;;;;;;-0.29;71.96;100926.23;79399;1298;3011893;-64
2023/01/25 07:26:21;;;;;;;30.60;13.70;;;;;;;-0.20;71.67;100924.06;79250;1296;3011888;-61
2023/01/25 07:28:49;;;;;;;33.30;14.00;;;;;;;-0.42;72.29;100927.52;77801;1300;3052089;-62
2023/01/25 07:31:17;;;;;;;38.40;14.50;;;;;;;-0.48;72.77;100922.84;79240;1300;3013148;-62
2023/01/25 07:33:46;;;;;;;31.10;15.00;;;;;;;-0.59;72.85;100920.16;79155;1297;3011927;-61
2023/01/25 07:36:14;;;;;;;32.30;15.90;;;;;;;-0.52;73.29;100924.34;77958;1298;3056627;-62
2023/01/25 07:38:41;;;;;;;32.80;15.10;;;;;;;-0.32;72.29;100923.98;79159;1297;3013471;-63
2023/01/25 07:41:07;;;;;;;38.30;16.30;;;;;;;-0.26;72.12;100922.81;79297;1296;3011674;-61
2023/01/25 07:43:38;;;;;;;40.50;16.10;;;;;;;-0.00;71.69;100921.10;78024;1300;3053250;-62
2023/01/25 07:46:07;;;;;;;28.80;14.00;;;;;;;0.32;70.69;100923.67;79348;1301;3013029;-62
2023/01/25 07:48:33;;;;;;;30.10;13.90;;;;;;;0.43;69.61;100920.64;79285;1296;3011507;-62
2023/01/25 07:51:21;;;;;;;35.00;15.10;;;;;;;0.61;69.31;100916.20;78050;1297;3057403;-62
2023/01/25 07:53:51;;;;;;;29.30;12.70;;;;;;;0.87;68.77;100915.25;78105;1300;3049271;-62
2023/01/25 07:56:18;;;;;;;31.30;14.50;;;;;;;0.99;67.41;100913.03;79364;1296;3013061;-62
2023/01/25 07:58:45;;;;;;;28.30;14.60;;;;;;;1.13;67.31;100910.81;79219;1298;3011597;-62
2023/01/25 08:01:17;;;;;;;34.70;16.50;;;;;;;1.18;66.31;100909.77;78221;1297;3050980;-62
2023/01/25 08:03:44;;;;;;;32.80;16.00;;;;;;;1.32;66.47;100910.14;79305;1295;3011490;-62
2023/01/25 08:06:12;;;;;;;32.10;14.50;;;;;;;1.33;65.80;100909.95;78125;1299;3025918;-61
2023/01/25 08:08:43;;;;;;;28.20;14.70;;;;;;;1.44;65.91;100908.41;79274;1299;3011217;-62
2023/01/25 08:11:22;;;;;;;29.80;14.10;;;;;;;1.49;65.50;100903.92;78060;1300;3054223;-62
2023/01/25 08:13:50;;;;;;;38.80;17.20;;;;;;;1.58;65.08;100903.92;77983;1300;3050516;-63
2023/01/25 08:16:21;;;;;;;34.80;15.30;;;;;;;1.45;65.37;100904.95;79334;1297;3013528;-62
2023/01/25 08:18:51;;;;;;;35.10;16.30;;;;;;;1.58;65.57;100907.20;77927;1300;3069054;-62
2023/01/25 08:21:18;;;;;;;29.80;14.40;;;;;;;1.61;65.26;100899.94;79283;1297;3013101;-63
2023/01/25 08:23:44;;;;;;;25.50;14.30;;;;;;;1.53;65.16;100898.23;79276;1297;3011935;-62
2023/01/25 08:26:13;;;;;;;33.90;13.40;;;;;;;1.67;65.63;100896.14;77952;1298;3052153;-61
2023/01/25 08:28:40;;;;;;;33.30;14.70;;;;;;;1.80;65.14;100891.27;79305;1300;3013834;-63
2023/01/25 08:31:11;;;;;;;37.30;15.60;;;;;;;1.71;65.07;100888.70;79354;1299;3011710;-63
2023/01/25 08:33:39;;;;;;;39.10;16.00;;;;;;;1.78;65.03;100889.20;78209;1295;3068878;-64
2023/01/25 08:36:08;;;;;;;35.70;15.10;;;;;;;1.77;65.19;100880.05;79373;1299;3012353;-62
2023/01/25 08:38:35;;;;;;;36.60;14.70;;;;;;;2.00;64.70;100881.38;79216;1296;3011707;-63
2023/01/25 08:41:04;;;;;;;35.10;15.50;;;;;;;2.17;63.91;100875.80;78162;1300;3052418;-62
2023/01/25 08:43:31;;;;;;;32.30;15.50;;;;;;;2.36;63.59;100866.57;79279;1300;3011869;-62
2023/01/25 08:45:58;;;;;;;29.90;14.10;;;;;;;2.39;62.81;100868.10;79240;1296;3011938;-62
2023/01/25 08:48:26;;;;;;;31.60;14.60;;;;;;;2.42;62.59;100864.98;78050;1296;3069312;-65
2023/01/25 08:50:52;;;;;;;35.40;15.80;;;;;;;2.49;62.18;100857.84;79301;1297;3018524;-62
2023/01/25 08:53:19;;;;;;;37.30;16.10;;;;;;;2.58;62.09;100857.98;79182;1299;3012832;-62
2023/01/25 08:55:47;;;;;;;29.80;14.50;;;;;;;2.73;61.52;100849.59;78038;1300;3027196;-63
2023/01/25 08:58:15;;;;;;;40.50;17.20;;;;;;;2.78;60.99;100849.04;79242;1300;3013405;-62
2023/01/25 09:00:42;;;;;;;37.70;16.10;;;;;;;2.72;60.84;100847.17;79414;1298;3011831;-64
2023/01/25 09:03:10;;;;;;;37.30;15.80;;;;;;;2.92;61.25;100843.41;78151;1299;3069295;-67
2023/01/25 09:05:37;;;;;;;36.00;15.80;;;;;;;2.95;60.58;100842.86;79420;1296;3012964;-62
2023/01/25 09:08:05;;;;;;;37.40;15.90;;;;;;;3.00;60.27;100843.52;79311;1296;3011890;-62
2023/01/25 09:10:33;;;;;;;34.90;15.70;;;;;;;3.00;60.03;100844.04;78130;1298;3051843;-62
2023/01/25 09:13:00;;;;;;;36.30;14.90;;;;;;;3.07;60.39;100836.89;79702;1298;3014682;-62
2023/01/25 09:15:27;;;;;;;35.10;15.80;;;;;;;3.12;59.80;100838.41;80444;1297;3011235;-61
2023/01/25 09:17:58;;;;;;;34.00;15.40;;;;;;;3.05;59.79;100836.02;78221;1294;3069093;-61
2023/01/25 09:20:25;;;;;;;31.00;14.60;;;;;;;3.17;59.83;100829.38;79277;1295;3018617;-61
2023/01/25 09:22:52;;;;;;;29.50;14.10;;;;;;;3.28;59.64;100828.41;79377;1297;3012299;-62
2023/01/25 09:25:19;;;;;;;30.10;14.70;;;;;;;3.33;58.67;100826.63;77963;1301;3028788;-61
2023/01/25 09:27:52;;;;;;;30.50;15.50;;;;;;;3.14;58.92;100826.79;79426;1297;3013298;-61
2023/01/25 09:30:20;;;;;;;27.90;13.10;;;;;;;3.13;59.41;100823.15;78155;1297;3052041;-61
2023/01/25 09:32:49;;;;;;;27.80;13.60;;;;;;;3.34;58.71;100821.59;79488;1295;3013027;-61
2023/01/25 09:35:16;;;;;;;22.50;11.90;;;;;;;3.43;58.19;100821.51;79508;1294;3013250;-61
2023/01/25 09:37:49;;;;;;;28.30;12.80;;;;;;;3.60;58.09;100817.02;78167;1299;3049225;-62
2023/01/25 09:40:22;;;;;;;20.50;11.70;;;;;;;3.59;58.18;100816.50;78936;1297;3011825;-61
2023/01/25 09:42:54;;;;;;;24.30;12.40;;;;;;;3.73;57.48;100816.34;79680;1295;3011840;-61
2023/01/25 09:45:32;;;;;;;26.30;11.90;;;;;;;3.77;57.08;100813.70;78452;1297;3053729;-63
2023/01/25 09:48:04;;;;;;;31.70;12.70;;;;;;;3.82;56.61;100804.98;78445;1297;3051333;-63
2023/01/25 09:50:36;;;;;;;30.30;13.60;;;;;;;3.72;56.58;100807.02;79687;1298;3011887;-61
2023/01/25 09:53:25;;;;;;;25.10;12.30;;;;;;;3.69;57.50;100800.45;78094;1297;3052119;-62
2023/01/25 09:55:58;;;;;;;26.60;13.50;;;;;;;3.81;56.70;100797.55;79756;1295;3011624;-61
2023/01/25 09:58:37;;;;;;;29.30;13.00;;;;;;;3.91;57.24;100797.43;78031;1301;3049585;-62
2023/01/25 10:01:33;;;;;;;24.20;12.10;;;;;;;3.92;56.29;100785.63;78051;1294;3053434;-61
2023/01/25 10:04:09;;;;;;;31.90;14.00;;;;;;;4.01;56.07;100783.79;78085;1297;3050183;-61
2023/01/25 10:06:39;;;;;;;34.40;15.00;;;;;;;3.78;55.76;100778.00;78173;1297;3052313;-61
2023/01/25 10:09:20;;;;;;;34.60;14.60;;;;;;;3.82;56.02;100774.83;79366;1297;3012859;-61
2023/01/25 10:11:48;;;;;;;30.00;13.80;;;;;;;3.84;56.16;100769.95;78233;1297;3069975;-62
2023/01/25 10:14:16;;;;;;;28.00;12.80;;;;;;;3.99;55.90;100773.08;79361;1294;3013819;-62
2023/01/25 10:16:46;;;;;;;28.50;13.20;;;;;;;4.01;55.81;100772.00;79383;1295;3011575;-61
2023/01/25 10:19:56;;;;;;;26.40;13.40;;;;;;;4.06;55.36;100771.23;78203;1295;3053730;-61
2023/01/25 10:22:27;;;;;;;25.10;12.00;;;;;;;4.07;55.49;100767.23;78231;1298;3053258;-61
2023/01/25 10:25:04;;;;;;;30.60;12.40;;;;;;;3.95;55.72;100765.65;79914;1294;3012984;-63
2023/01/25 10:27:31;;;;;;;32.90;11.80;;;;;;;4.02;56.12;100763.84;78303;1295;3051167;-63
2023/01/25 10:29:59;;;;;;;25.60;12.50;;;;;;;4.27;55.60;100757.27;79650;1295;3013737;-62
2023/01/25 10:32:31;;;;;;;22.50;11.80;;;;;;;4.40;55.44;100754.64;79330;1294;3013116;-62
2023/01/25 10:35:17;;;;;;;23.50;10.60;;;;;;;4.41;54.83;100756.70;78438;1297;3049468;-63
2023/01/25 10:37:46;;;;;;;19.80;9.50;;;;;;;4.52;54.58;100754.80;78033;1295;3053697;-61
2023/01/25 10:40:22;;;;;;;19.80;9.30;;;;;;;4.65;54.66;100755.83;79205;1300;3021128;-61
2023/01/25 10:43:02;;;;;;;22.50;9.90;;;;;;;4.58;54.17;100753.51;78108;1300;3052018;-61
2023/01/25 10:45:30;;;;;;;18.00;8.20;;;;;;;4.56;54.68;100750.42;78049;1299;3069558;-61
2023/01/25 10:48:03;;;;;;;25.90;9.60;;;;;;;4.55;54.19;100748.88;79411;1294;3013551;-61
2023/01/25 10:50:40;;;;;;;22.50;9.50;;;;;;;4.50;54.60;100746.17;78133;1300;3050522;-61
2023/01/25 13:45:25;;;;;;;10.00;5.00;;;;;;;5.00;52.62;100676.77;80020;1302;3013282;-63
2023/01/25 13:48:17;;;;;;;13.00;5.30;;;;;;;5.10;52.95;100671.74;79127;1299;3013437;-62
2023/01/25 13:50:55;;;;;;;14.80;5.30;;;;;;;5.05;53.01;100674.95;78040;1304;3053399;-62
2023/01/25 13:53:28;;;;;;;13.50;5.20;;;;;;;5.05;52.84;100668.86;78020;1304;3051859;-62
2023/01/25 13:55:56;;;;;;;16.00;5.10;;;;;;;5.05;52.57;100671.30;79555;1303;3011733;-63
2023/01/25 13:58:28;;;;;;;11.50;4.50;;;;;;;5.02;52.80;100670.84;76350;1295;3050915;-62
2023/01/25 14:01:05;;;;;;;11.50;4.90;;;;;;;4.93;52.98;100666.14;79522;1296;3011540;-62
2023/01/25 14:03:44;;;;;;;14.40;5.00;;;;;;;4.89;53.01;100666.20;77936;1300;3049133;-61
2023/01/25 14:06:17;;;;;;;15.50;5.60;;;;;;;4.86;53.12;100670.25;77958;1301;3053992;-62
2023/01/25 14:08:45;;;;;;;12.20;5.00;;;;;;;4.79;53.37;100669.68;79379;1296;3011860;-62
2023/01/25 14:11:20;;;;;;;16.60;5.60;;;;;;;4.80;53.57;100664.80;78096;1301;3054888;-63